createdAt,value
2023-07-12T00:00:17.575Z,64.36
2023-07-12T00:03:24.246Z,63.14
2023-07-12T00:06:38.271Z,62.63
2023-07-12T00:09:40.937Z,61.79
2023-07-12T00:12:43.314Z,61.58
2023-07-12T00:15:47.666Z,62.50
2023-07-12T00:18:50.293Z,62.44
2023-07-12T00:21:52.591Z,63.38
2023-07-12T00:24:54.815Z,63.97
2023-07-12T00:27:57.384Z,62.60
2023-07-12T00:30:59.647Z,62.46
2023-07-12T00:34:02.807Z,62.92
2023-07-12T00:37:12.982Z,63.11
2023-07-12T00:40:54.469Z,62.62
2023-07-12T00:44:05.895Z,63.48
2023-07-12T00:47:12.678Z,63.33
2023-07-12T00:50:20.260Z,63.85
2023-07-12T00:53:24.918Z,64.46
2023-07-12T00:56:27.799Z,63.77
2023-07-12T00:59:31.285Z,65.64
2023-07-12T01:02:33.870Z,64.28
2023-07-12T01:05:37.295Z,64.64
2023-07-12T01:08:44.662Z,65.23
2023-07-12T01:11:47.567Z,65.24
2023-07-12T01:14:49.892Z,65.61
2023-07-12T01:17:52.280Z,66.09
2023-07-12T01:21:08.329Z,67.54
2023-07-12T01:24:13.286Z,66.37
2023-07-12T01:27:21.437Z,67.25
2023-07-12T01:30:23.676Z,66.20
2023-07-12T01:33:26.412Z,66.42
2023-07-12T01:36:30.085Z,66.94
2023-07-12T01:39:34.191Z,67.31
2023-07-12T01:42:36.449Z,67.92
2023-07-12T01:45:38.767Z,71.23
2023-07-12T01:48:41.615Z,67.12
2023-07-12T01:51:44.599Z,67.17
2023-07-12T01:54:50.960Z,67.43
2023-07-12T01:57:54.757Z,67.29
2023-07-12T02:00:59.231Z,67.48
2023-07-12T02:04:02.038Z,67.68
2023-07-12T02:07:04.784Z,67.47
2023-07-12T02:10:19.042Z,67.46
2023-07-12T02:13:22.648Z,67.57
2023-07-12T02:16:24.998Z,69.26
2023-07-12T02:19:27.280Z,68.15
2023-07-12T02:22:31.928Z,67.47
2023-07-12T02:25:34.984Z,67.72
2023-07-12T02:28:40.392Z,69.92
2023-07-12T02:31:43.396Z,67.83
2023-07-12T02:34:45.712Z,68.35
2023-07-12T02:37:48.730Z,68.36
2023-07-12T02:40:50.984Z,67.91
2023-07-12T02:43:53.243Z,68.96
2023-07-12T02:46:55.539Z,68.91
2023-07-12T02:49:57.814Z,69.10
2023-07-12T02:53:00.068Z,69.96
2023-07-12T02:56:04.635Z,70.05
2023-07-12T02:59:07.159Z,69.61
2023-07-12T03:02:11.484Z,69.72
2023-07-12T03:05:13.853Z,69.68
2023-07-12T03:08:16.134Z,72.33
2023-07-12T03:11:18.415Z,70.97
2023-07-12T03:14:22.449Z,70.75
2023-07-12T03:17:24.724Z,71.21
2023-07-12T03:20:27.030Z,71.18
2023-07-12T03:23:34.157Z,69.82
2023-07-12T03:26:37.378Z,70.08
2023-07-12T03:29:39.600Z,70.37
2023-07-12T03:32:41.896Z,70.06
2023-07-12T03:35:51.056Z,69.46
2023-07-12T03:38:53.860Z,69.96
2023-07-12T03:41:56.363Z,69.44
2023-07-12T03:44:58.768Z,69.11
2023-07-12T03:48:01.052Z,68.13
2023-07-12T03:51:03.452Z,68.67
2023-07-12T03:54:05.751Z,68.19
2023-07-12T03:57:08.668Z,67.83
2023-07-12T04:00:14.028Z,67.63
2023-07-12T04:03:17.874Z,68.00
2023-07-12T04:06:20.232Z,68.12
2023-07-12T04:09:22.478Z,67.90
2023-07-12T04:12:24.936Z,68.03
2023-07-12T04:15:27.223Z,68.73
2023-07-12T04:18:29.873Z,68.55
2023-07-12T04:21:32.333Z,67.52
2023-07-12T04:24:34.572Z,67.84
2023-07-12T04:27:38.472Z,68.05
2023-07-12T04:30:40.833Z,67.86
2023-07-12T04:33:43.280Z,69.02
2023-07-12T04:36:45.534Z,67.17
2023-07-12T04:39:47.775Z,67.83
2023-07-12T04:42:50.086Z,65.82
2023-07-12T04:45:53.695Z,68.00
2023-07-12T04:48:56.994Z,67.88
2023-07-12T04:51:59.741Z,67.16
2023-07-12T04:55:19.686Z,67.35
2023-07-12T04:58:22.207Z,66.29
2023-07-12T05:01:24.594Z,65.47
2023-07-12T05:04:27.014Z,66.56
2023-07-12T05:07:32.443Z,65.64
2023-07-12T05:10:34.952Z,66.79
2023-07-12T05:13:37.314Z,65.47
2023-07-12T05:16:39.716Z,65.61
2023-07-12T05:19:42.127Z,65.96
2023-07-12T05:22:44.615Z,67.00
2023-07-12T05:25:51.489Z,66.11
2023-07-12T05:28:54.658Z,67.52
2023-07-12T05:31:57.384Z,66.89
2023-07-12T05:34:59.736Z,66.68
2023-07-12T05:38:02.041Z,68.41
2023-07-12T05:41:04.767Z,68.23
2023-07-12T05:44:07.125Z,68.98
2023-07-12T05:47:09.455Z,70.46
2023-07-12T05:50:14.463Z,69.57
2023-07-12T05:53:16.739Z,68.93
2023-07-12T05:56:18.975Z,69.58
2023-07-12T05:59:22.785Z,70.24
2023-07-12T06:02:25.302Z,70.98
2023-07-12T06:05:27.764Z,70.87
2023-07-12T06:08:30.126Z,71.40
2023-07-12T06:11:32.464Z,70.91
2023-07-12T06:14:34.962Z,72.48
2023-07-12T06:17:37.618Z,71.88
2023-07-12T06:20:39.867Z,69.99
2023-07-12T06:23:43.331Z,66.97
2023-07-12T06:26:46.151Z,63.66
2023-07-12T06:29:48.664Z,60.91
2023-07-12T06:32:51.080Z,62.91
2023-07-12T06:35:53.674Z,63.98
2023-07-12T06:38:56.096Z,62.48
2023-07-12T06:41:58.399Z,60.02
2023-07-12T06:45:08.128Z,57.70
2023-07-12T06:48:10.423Z,56.26
2023-07-12T06:51:12.878Z,56.33
2023-07-12T06:54:15.929Z,52.39
2023-07-12T06:57:18.236Z,53.76
2023-07-12T07:00:20.933Z,53.21
2023-07-12T07:03:23.988Z,53.08
2023-07-12T07:06:26.693Z,53.88
2023-07-12T07:09:29.035Z,53.32
2023-07-12T07:12:32.434Z,52.14
2023-07-12T07:15:34.850Z,50.62
2023-07-12T07:18:37.597Z,50.99
2023-07-12T07:21:42.562Z,48.22
2023-07-12T07:24:45.229Z,47.93
2023-07-12T07:27:48.115Z,46.11
2023-07-12T07:30:56.962Z,45.14
2023-07-12T07:33:59.222Z,47.06
2023-07-12T07:37:01.861Z,46.54
2023-07-12T07:40:04.766Z,46.38
2023-07-12T07:43:07.328Z,47.09
2023-07-12T07:46:10.883Z,42.81
2023-07-12T07:49:13.409Z,46.49
2023-07-12T07:52:15.666Z,42.51
2023-07-12T07:55:17.925Z,45.09
2023-07-12T07:58:21.906Z,42.89
2023-07-12T08:01:24.210Z,40.74
2023-07-12T08:04:26.643Z,40.44
2023-07-12T08:07:29.324Z,40.39
2023-07-12T08:10:33.688Z,38.52
2023-07-12T08:13:36.453Z,39.92
2023-07-12T08:16:38.907Z,39.34
2023-07-12T08:19:41.263Z,40.12
2023-07-12T08:22:43.938Z,37.22
2023-07-12T08:25:46.230Z,37.19
2023-07-12T08:28:49.088Z,36.26
2023-07-12T08:31:54.071Z,36.51
2023-07-12T08:34:57.708Z,36.44
2023-07-12T08:38:00.031Z,35.27
2023-07-12T08:41:02.369Z,34.71
2023-07-12T08:44:06.720Z,35.96
2023-07-12T08:47:20.941Z,36.30
2023-07-12T08:50:23.461Z,35.09
2023-07-12T08:53:31.074Z,34.33
2023-07-12T08:56:33.521Z,34.12
2023-07-12T08:59:35.933Z,35.00
2023-07-12T09:02:38.486Z,33.67
2023-07-12T09:05:40.927Z,33.58
2023-07-12T09:08:51.976Z,34.88
2023-07-12T09:11:55.568Z,35.69
2023-07-12T09:15:00.649Z,35.67
2023-07-12T09:18:07.589Z,36.11
2023-07-12T09:21:22.618Z,35.14
2023-07-12T09:24:29.145Z,36.84
2023-07-12T09:27:31.397Z,38.85
2023-07-12T09:30:35.817Z,38.14
2023-07-12T09:33:38.276Z,39.33
2023-07-12T09:36:40.889Z,43.49
2023-07-12T09:39:53.749Z,41.74
2023-07-12T09:42:59.563Z,41.50
2023-07-12T09:46:26.451Z,38.85
2023-07-12T09:49:40.710Z,37.86
2023-07-12T09:52:57.816Z,39.32
2023-07-12T09:56:26.616Z,37.62
2023-07-12T09:59:31.789Z,37.27
2023-07-12T10:03:16.125Z,37.97
2023-07-12T10:06:43.883Z,37.11
2023-07-12T10:09:49.524Z,36.26
2023-07-12T10:13:28.811Z,33.80
2023-07-12T10:16:36.167Z,35.68
2023-07-12T10:19:41.267Z,33.07
2023-07-12T10:22:45.720Z,31.15
2023-07-12T10:26:10.423Z,31.09
2023-07-12T10:29:22.627Z,35.48
2023-07-12T10:32:37.735Z,36.46
2023-07-12T10:35:50.217Z,32.98
2023-07-12T10:38:53.083Z,35.69
2023-07-12T10:42:06.982Z,36.54
2023-07-12T10:45:26.313Z,29.88
2023-07-12T10:48:30.458Z,28.51
2023-07-12T10:51:38.362Z,27.79
2023-07-12T10:54:53.046Z,27.49
2023-07-12T10:58:26.005Z,32.14
2023-07-12T11:01:43.494Z,30.26
2023-07-12T11:04:48.051Z,29.79
2023-07-12T11:07:50.365Z,29.97
2023-07-12T11:10:53.773Z,30.97
2023-07-12T11:14:44.816Z,31.55
2023-07-12T11:17:55.113Z,33.07
2023-07-12T11:21:25.602Z,31.15
2023-07-12T11:24:31.097Z,30.70
2023-07-12T11:27:57.622Z,32.13
2023-07-12T11:31:24.896Z,32.64
2023-07-12T11:34:28.580Z,35.08
2023-07-12T11:37:46.990Z,34.69
2023-07-12T11:40:53.932Z,35.96
2023-07-12T11:44:06.689Z,36.26
2023-07-12T11:47:10.869Z,35.50
2023-07-12T11:50:21.513Z,34.20
2023-07-12T11:53:25.238Z,33.17
2023-07-12T11:56:29.416Z,34.43
2023-07-12T11:59:37.775Z,36.74
2023-07-12T12:02:42.813Z,36.27
2023-07-12T12:05:49.605Z,35.01
2023-07-12T12:08:55.408Z,34.05
2023-07-12T12:11:59.295Z,32.98
2023-07-12T12:15:01.894Z,34.10
2023-07-12T12:18:17.137Z,34.97
2023-07-12T12:21:23.743Z,34.09
2023-07-12T12:24:26.556Z,36.26
2023-07-12T12:27:36.573Z,36.03
2023-07-12T12:30:38.888Z,36.23
2023-07-12T12:33:50.897Z,35.30
2023-07-12T12:37:10.554Z,36.02
2023-07-12T12:40:19.043Z,36.16
2023-07-12T12:43:21.362Z,36.39
2023-07-12T12:46:24.757Z,36.05
2023-07-12T12:53:26.896Z,35.66
2023-07-12T13:05:32.488Z,36.86
2023-07-12T13:18:12.199Z,36.36
2023-07-12T13:21:26.242Z,36.14
2023-07-12T13:24:29.105Z,35.32
2023-07-12T13:27:37.587Z,38.51
2023-07-12T13:30:40.978Z,36.65
2023-07-12T13:33:55.559Z,37.87
2023-07-12T13:37:00.384Z,38.71
2023-07-12T13:40:04.198Z,37.27
2023-07-12T13:43:31.416Z,37.56
2023-07-12T13:46:33.269Z,36.74
2023-07-12T13:49:35.570Z,37.41
2023-07-12T13:52:37.847Z,37.68
2023-07-12T14:03:05.309Z,37.42
2023-07-12T14:11:31.151Z,37.11
2023-07-12T14:14:33.398Z,36.52
2023-07-12T14:17:36.341Z,38.45
2023-07-12T14:20:39.055Z,37.10
2023-07-12T14:23:42.255Z,37.93
2023-07-12T14:26:44.910Z,38.31
2023-07-12T14:32:55.864Z,37.76
2023-07-12T14:35:58.629Z,37.79
2023-07-12T14:39:01.765Z,39.02
2023-07-12T14:42:04.536Z,34.05
2023-07-12T14:45:13.642Z,33.91
2023-07-12T14:48:16.403Z,34.51
2023-07-12T14:51:24.291Z,35.32
2023-07-12T14:54:26.770Z,36.16
2023-07-12T14:58:02.951Z,36.05
2023-07-12T15:00:52.614Z,34.87
2023-07-12T15:03:57.280Z,35.80
2023-07-12T15:06:59.609Z,36.23
2023-07-12T15:10:05.101Z,35.88
2023-07-12T15:13:10.092Z,34.77
2023-07-12T15:16:20.839Z,33.86
2023-07-12T15:19:23.174Z,34.38
2023-07-12T15:22:29.747Z,34.65
2023-07-12T15:25:32.326Z,34.89
2023-07-12T15:28:39.565Z,35.39
2023-07-12T15:31:41.864Z,34.42
2023-07-12T15:34:47.182Z,33.92
2023-07-12T15:37:54.679Z,34.67
2023-07-12T15:40:59.439Z,35.06
2023-07-12T15:44:02.130Z,33.51
2023-07-12T15:47:04.777Z,32.96
2023-07-12T15:50:08.906Z,33.59
2023-07-12T15:53:19.493Z,33.84
2023-07-12T15:56:26.037Z,33.82
2023-07-12T15:59:30.304Z,33.10
2023-07-12T16:02:32.679Z,33.93
2023-07-12T16:05:35.203Z,34.64
2023-07-12T16:08:38.538Z,34.32
2023-07-12T16:11:44.755Z,34.58
2023-07-12T16:14:47.365Z,34.74
2023-07-12T16:17:49.903Z,35.36
2023-07-12T16:20:54.314Z,35.15
2023-07-12T16:23:58.063Z,36.16
2023-07-12T16:27:00.316Z,35.90
2023-07-12T16:30:02.547Z,36.93
2023-07-12T16:33:16.498Z,36.84
2023-07-12T16:36:19.218Z,36.96
2023-07-12T16:39:21.857Z,37.27
2023-07-12T16:42:28.575Z,38.18
2023-07-12T16:45:30.968Z,37.30
2023-07-12T16:48:33.863Z,37.92
2023-07-12T16:52:00.020Z,38.34
2023-07-12T16:55:02.389Z,38.70
2023-07-12T16:58:17.782Z,39.40
2023-07-12T17:01:27.259Z,39.63
2023-07-12T17:04:30.274Z,40.21
2023-07-12T17:07:32.685Z,40.55
2023-07-12T17:10:34.958Z,40.94
2023-07-12T17:13:37.239Z,41.05
2023-07-12T17:16:40.758Z,41.04
2023-07-12T17:19:44.295Z,41.40
2023-07-12T17:22:46.560Z,40.93
2023-07-12T17:25:49.639Z,41.42
2023-07-12T17:28:51.889Z,41.86
2023-07-12T17:31:54.249Z,42.28
2023-07-12T17:34:56.817Z,41.13
2023-07-12T17:37:59.028Z,42.13
2023-07-12T17:41:02.564Z,41.95
2023-07-12T17:44:04.865Z,44.17
2023-07-12T17:47:17.703Z,43.37
2023-07-12T17:50:22.487Z,47.10
2023-07-12T17:53:24.917Z,47.98
2023-07-12T17:56:27.392Z,49.91
2023-07-12T17:59:29.632Z,51.19
2023-07-12T18:02:37.654Z,51.31
2023-07-12T18:05:44.494Z,51.37
2023-07-12T18:08:47.094Z,52.68
2023-07-12T18:11:49.450Z,53.01
2023-07-12T18:14:51.959Z,53.37
2023-07-12T18:17:54.288Z,52.99
2023-07-12T18:21:42.524Z,53.38
2023-07-12T18:24:54.644Z,51.66
2023-07-12T18:28:28.214Z,52.84
2023-07-12T18:31:38.165Z,53.59
2023-07-12T18:34:40.500Z,54.22
2023-07-12T18:37:42.884Z,54.24
2023-07-12T18:40:45.492Z,56.53
2023-07-12T18:43:49.476Z,57.22
2023-07-12T18:46:53.918Z,57.76
2023-07-12T18:49:57.908Z,58.79
2023-07-12T18:53:00.384Z,58.68
2023-07-12T18:56:03.872Z,58.96
2023-07-12T18:59:06.680Z,60.52
2023-07-12T19:02:14.344Z,57.38
2023-07-12T19:05:27.010Z,56.73
2023-07-12T19:08:33.427Z,56.79
2023-07-12T19:11:38.895Z,59.20
2023-07-12T19:14:41.600Z,60.29
2023-07-12T19:17:44.101Z,60.72
2023-07-12T19:20:46.463Z,61.45
2023-07-12T19:23:48.927Z,61.97
2023-07-12T19:26:55.606Z,63.01
2023-07-12T19:29:58.440Z,62.77
2023-07-12T19:33:01.304Z,64.13
2023-07-12T19:36:04.349Z,64.82
2023-07-12T19:39:06.720Z,64.60
2023-07-12T19:42:09.077Z,64.81
2023-07-12T19:45:23.264Z,65.58
2023-07-12T19:48:25.735Z,66.31
2023-07-12T19:51:34.632Z,66.39
2023-07-12T19:54:36.944Z,66.54
2023-07-12T19:57:39.188Z,67.45
2023-07-12T20:00:42.039Z,68.25
2023-07-12T20:03:45.052Z,68.48
2023-07-12T20:06:47.442Z,68.07
2023-07-12T20:09:50.080Z,68.78
2023-07-12T20:12:52.324Z,67.75
2023-07-12T20:15:56.207Z,68.22
2023-07-12T20:18:58.727Z,69.19
2023-07-12T20:22:05.374Z,70.04
2023-07-12T20:25:09.543Z,70.63
2023-07-12T20:28:11.791Z,70.59
2023-07-12T20:31:17.165Z,70.44
2023-07-12T20:34:19.624Z,70.94
2023-07-12T20:37:21.911Z,71.41
2023-07-12T20:40:24.287Z,71.07
2023-07-12T20:43:30.524Z,70.96
2023-07-12T20:46:38.685Z,72.10
2023-07-12T20:49:48.621Z,72.15
2023-07-12T20:52:51.815Z,72.57
2023-07-12T20:55:54.596Z,72.89
2023-07-12T20:58:56.981Z,73.88
2023-07-12T21:01:59.557Z,73.76
2023-07-12T21:05:02.257Z,73.96
2023-07-12T21:08:04.772Z,74.36
2023-07-12T21:11:07.904Z,74.40
2023-07-12T21:14:10.147Z,74.82
2023-07-12T21:17:12.385Z,75.56
2023-07-12T21:20:14.630Z,75.93
2023-07-12T21:23:17.692Z,76.23
2023-07-12T21:26:20.241Z,76.41
2023-07-12T21:29:22.538Z,76.89
2023-07-12T21:32:24.778Z,76.84
2023-07-12T21:35:27.201Z,76.11
2023-07-12T21:38:30.113Z,74.73
2023-07-12T21:41:33.302Z,74.75
2023-07-12T21:44:35.530Z,75.44
2023-07-12T21:47:37.789Z,74.96
2023-07-12T21:50:41.325Z,76.10
2023-07-12T21:53:43.558Z,76.53
2023-07-12T21:56:46.125Z,76.74
2023-07-12T21:59:53.697Z,76.45
2023-07-12T22:02:56.458Z,77.46
2023-07-12T22:05:59.018Z,77.92
2023-07-12T22:09:08.397Z,77.61
2023-07-12T22:12:10.769Z,78.34
2023-07-12T22:15:13.110Z,78.53
2023-07-12T22:18:15.371Z,78.58
2023-07-12T22:21:19.744Z,77.60
2023-07-12T22:24:23.020Z,77.97
2023-07-12T22:27:25.284Z,77.41
2023-07-12T22:30:34.120Z,77.30
2023-07-12T22:33:36.851Z,76.90
2023-07-12T22:41:22.221Z,77.59
2023-07-12T22:44:24.602Z,76.17
2023-07-12T22:47:27.503Z,75.69
2023-07-12T22:50:30.740Z,75.71
2023-07-12T22:53:33.039Z,75.61
2023-07-12T22:56:35.266Z,75.09
2023-07-12T22:59:37.495Z,74.46
2023-07-12T23:02:39.958Z,75.27
2023-07-12T23:05:42.278Z,74.99
2023-07-12T23:08:44.581Z,75.99
2023-07-12T23:11:48.365Z,76.34
2023-07-12T23:14:52.025Z,76.18
2023-07-12T23:17:54.385Z,77.31
2023-07-12T23:20:57.679Z,77.90
2023-07-12T23:23:59.940Z,76.93
2023-07-12T23:27:04.873Z,75.89
2023-07-12T23:30:08.884Z,76.30
2023-07-12T23:33:11.163Z,76.10
2023-07-12T23:36:15.849Z,76.71
2023-07-12T23:39:19.040Z,77.16
2023-07-12T23:42:21.286Z,76.04
2023-07-12T23:45:24.341Z,76.25
2023-07-12T23:48:28.164Z,76.83
2023-07-12T23:51:30.401Z,77.36
2023-07-12T23:54:33.055Z,77.59
2023-07-12T23:57:35.402Z,78.66
